• Join FlightAware (Why Join?)
  • Login
  • US Flag 
03:24AM EST


 

Airport Tracker/Info


-or-


 

Live Flight TrackerFlight Track Log ✈ EMD21 ✈ 06-Jun-2013 ✈ KMLC - KROG

Flight Track Log - Related Links

Times and Time Zones

All times are in EDT time to prevent confusion due to time zone crossing. See the EMD21 flight status page for this flight to view local times or setup timezone preferences in your user account.

Time Position Orientation Groundspeed Altitude Reporting Facility
EDT Latitude Longitude Course Direction KTS MPH feet Rate Location/Type
12:04PM 34.9792 -95.6778 43° Northeast 224 258 4,700  Level Fort Worth Center
12:05PM 35.0100 -95.6442 42° Northeast 188 216 5,800 900 Climbing Fort Worth Center
12:06PM 35.0469 -95.6053 41° Northeast 170 196 6,600 960 Climbing Fort Worth Center
12:07PM 35.0819 -95.5614 46° Northeast 170 196 7,800 1,140 Climbing Fort Worth Center
12:08PM 35.0600 -95.5734 39° Northeast  Level FlightAware Approximate
12:08PM 35.1231 -95.5250 36° Northeast 165 190 8,900  Level Fort Worth Center
12:09PM 35.1004 -95.5329 43° Northeast  Level FlightAware Approximate
12:09PM 35.1619 -95.4783 44° Northeast 177 204 9,000  Level Fort Worth Center
12:10PM 35.2008 -95.4267 47° Northeast 209 241 9,000  Level Fort Worth Center
12:11PM 35.2478 -95.3722 43° Northeast 226 260 9,000  Level Fort Worth Center
12:12PM 35.3075 -95.3200 36° Northeast 233 268 9,000  Level Fort Worth Center
12:14PM 35.3708 -95.2421 45° Northeast  Level FlightAware Approximate
12:21PM 35.6317 -94.9265 43° Northeast  Level FlightAware Approximate
12:22PM 35.6702 -94.8830 43° Northeast  Level FlightAware Approximate
12:23PM 35.7086 -94.8394 43° Northeast  Level FlightAware Approximate
12:24PM 35.7471 -94.7958 43° Northeast  Level FlightAware Approximate
12:25PM 35.7855 -94.7521 43° Northeast  Level FlightAware Approximate
12:26PM 35.8238 -94.7083 44° Northeast  Level FlightAware Approximate
12:27PM 35.8616 -94.6637 44° Northeast  Level FlightAware Approximate
12:28PM 35.8994 -94.6191 44° Northeast  Level FlightAware Approximate
12:29PM 35.9371 -94.5745 44° Northeast  Level FlightAware Approximate
12:30PM 35.9749 -94.5298 44° Northeast  Level FlightAware Approximate
12:31PM 36.0136 -94.4865 39° Northeast  Level FlightAware Approximate
12:32PM 36.0542 -94.4458 39° Northeast  Level FlightAware Approximate
12:33PM 36.0949 -94.4052 39° Northeast  Level FlightAware Approximate
12:34PM 36.1332 -94.3614 47° Northeast  Level FlightAware Approximate